• Join FlightAware (Why Join?)
  • Login
  • US Flag 
12:25PM EST


 

Airport Tracker/Info


-or-


 

Live Flight TrackerFlight Track Log ✈ N1576V ✈ 14-Feb-2014 ✈ KTMB - KPIE

Flight Track Log - Related Links

Times and Time Zones

All times are in EST time to prevent confusion due to time zone crossing. See the N1576V flight status page for this flight to view local times or setup timezone preferences in your user account.

Time Position Orientation Groundspeed Altitude Reporting Facility
EST Latitude Longitude Course Direction KTS MPH feet Rate Location/Type
09:15PM 25.6508 -80.4131 46° Northeast 86 99 500  Level Miami Center
09:16PM 25.6722 -80.3883 46° Northeast 85 98 1,400 540 Climbing Miami Center
09:17PM 25.6842 -80.4094 302° West 70 81 2,000 300 Climbing Miami Center
09:18PM 25.6878 -80.4350 279° West 85 98 2,100  Climbing Miami Center
09:19PM 25.6914 -80.4581 280° West 112 129 2,000 -60 Descending Miami Center
09:20PM 25.7033 -80.4886 293° West 93 107 2,000  Level Miami Center
09:21PM 25.7194 -80.5053 317° Northwest 109 125 2,100  Climbing Miami Center
09:22PM 25.7444 -80.5128 345° North 99 114 2,100  Level Miami Center
09:24PM 25.7775 -80.5278 338° Northwest 106 122 2,200  Climbing Miami Center
09:24PM 25.8044 -80.5353 346° North 106 122 2,100 -120 Descending Miami Center
09:26PM 25.8311 -80.5478 337° Northwest 102 117 2,000 -60 Descending Miami Center
09:27PM 25.8644 -80.5603 341° North 101 116 2,000  Level Miami Center
09:28PM 25.8872 -80.5681 343° North 106 122 2,000 240 Level Miami Center
09:29PM 25.9139 -80.5781 341° North 91 105 2,500 480 Climbing Miami Center
09:30PM 25.9367 -80.5903 334° Northwest 85 98 3,000 480 Climbing Miami Center
09:31PM 25.9531 -80.6047 322° Northwest 79 91 3,500 420 Climbing Miami Center
09:32PM 25.9714 -80.6192 325° Northwest 80 92 3,900 240 Climbing Miami Center
09:33PM 25.9900 -80.6336 325° Northwest 88 101 4,100 60 Climbing Miami Center
09:34PM 26.0164 -80.6528 327° Northwest 101 116 4,100 -60 Level Miami Center
09:35PM 26.0369 -80.6719 320° Northwest 96 110 4,000 -120 Descending Miami Center
09:36PM 26.0594 -80.6889 326° Northwest 94 108 3,900  Descending Miami Center
09:36PM 26.0717 -80.6961 332° Northwest 96 110 4,000 180 Climbing Miami Center
09:37PM 26.0758 -80.7056 296° West 86 99 4,100 60 Climbing Miami Center
09:37PM 26.0881 -80.7106 340° North 88 101 4,100 -120 Level Miami Center
09:38PM 26.0981 -80.7272 304° West 95 109 4,000 -120 Descending Miami Center
09:38PM 26.1086 -80.7297 348° North 98 113 4,000 -120 Level Miami Center
09:39PM 26.1289 -80.7489 320° Northwest 103 119 3,900 120 Descending Miami Center
09:40PM 26.1514 -80.7636 330° Northwest 103 119 4,300 360 Climbing Miami Center
09:41PM 26.1761 -80.7758 336° Northwest 98 113 4,700 300 Climbing Miami Center
09:42PM 26.1989 -80.7883 334° Northwest 92 106 5,000 300 Climbing Miami Center
09:43PM 26.2108 -80.8072 305° West 86 99 5,300 300 Climbing Miami Center
09:44PM 26.2314 -80.8217 328° Northwest 86 99 5,600 300 Climbing Miami Center
09:45PM 26.2558 -80.8389 328° Northwest 86 99 5,900 180 Climbing Miami Center
09:46PM 26.2742 -80.8556 321° Northwest 86 99 6,000 60 Climbing Miami Center
09:47PM 26.3008 -80.8775 324° Northwest 91 105 6,100  Climbing Miami Center
09:48PM 26.3211 -80.8942 324° Northwest 99 114 6,100  Level Miami Center
09:49PM 26.3478 -80.9161 324° Northwest 105 121 6,100  Level Miami Center
09:50PM 26.3683 -80.9331 324° Northwest 105 121 6,100 -60 Level Miami Center
09:51PM 26.3969 -80.9503 332° Northwest 105 121 6,000 -120 Descending Miami Center
09:52PM 26.4172 -80.9672 323° Northwest 100 115 5,900  Descending Miami Center
09:53PM 26.4397 -80.9889 319° Northwest 95 109 6,000  Climbing Miami Center
09:54PM 26.4581 -81.0081 317° Northwest 95 109 5,900 -60 Descending Miami Center
09:55PM 26.4739 -81.0317 307° West 90 104 5,900  Level Miami Center
09:56PM 26.4922 -81.0556 311° West 95 109 5,900  Level Miami Center
09:57PM 26.5125 -81.0750 319° Northwest 95 109 5,900  Level Miami Center
09:58PM 26.5283 -81.0986 307° West 95 109 5,900  Level Miami Center
09:59PM 26.5444 -81.1200 310° West 95 109 6,000  Climbing Miami Center
10:00PM 26.5586 -81.1417 306° West 90 104 6,000 -60 Level Miami Center
10:01PM 26.5725 -81.1653 303° West 84 97 5,900  Descending Miami Center
10:02PM 26.5950 -81.1822 326° Northwest 84 97 6,000  Climbing Miami Center
10:03PM 26.6153 -81.1969 327° Northwest 89 102 6,000  Level Miami Center
10:07PM 26.6794 -81.2900 320° Northwest 102 117 6,000 -60 Level Miami Center
10:08PM 26.6956 -81.3069 317° Northwest 102 117 5,900 -60 Descending Miami Center
10:09PM 26.7158 -81.3286 316° Northwest 97 112 5,900  Level Miami Center
10:10PM 26.7383 -81.3433 330° Northwest 97 112 5,900  Level Miami Center
10:11PM 26.7586 -81.3606 323° Northwest 97 112 6,000  Climbing Miami Center
10:12PM 26.7657 -81.3361 320° Northwest  Level FlightAware Approximate
10:12PM 26.7811 -81.3753 330° Northwest 92 106 6,000  Level Miami Center
10:13PM 26.8056 -81.3925 328° Northwest 92 106 5,900 -60 Descending Miami Center
10:14PM 26.8281 -81.4097 326° Northwest 97 112 5,900  Level Miami Center
10:15PM 26.8442 -81.4289 313° West 92 106 6,000 60 Climbing Miami Center
10:16PM 26.8581 -81.4528 303° West 92 106 6,100  Climbing Miami Center
10:17PM 26.8742 -81.4744 310° West 92 106 6,100 -120 Level Miami Center
10:18PM 26.8900 -81.4936 313° West 92 106 5,900 -120 Descending Miami Center
10:19PM 26.9081 -81.5175 310° West 92 106 5,900  Level Miami Center
10:20PM 26.9283 -81.5369 319° Northwest 92 106 6,000  Climbing Miami Center
10:21PM 26.9444 -81.5586 310° West 92 106 6,000  Level Miami Center
10:22PM 26.9667 -81.5758 325° Northwest 92 106 6,000  Level Miami Center
10:23PM 26.9850 -81.5953 317° Northwest 92 106 6,000  Level Miami Center
10:24PM 27.0031 -81.6169 313° West 92 106 6,000  Level Miami Center
10:25PM 27.0211 -81.6386 313° West 92 106 6,100  Climbing Miami Center
10:26PM 27.0414 -81.6558 323° Northwest 92 106 6,100  Level Miami Center
10:27PM 27.0553 -81.6772 306° West 92 106 6,100  Level Miami Center
10:28PM 27.0819 -81.6900 337° Northwest 92 106 6,100  Level Miami Center
10:29PM 27.1044 -81.7050 329° Northwest 92 106 6,100  Level Miami Center
10:30PM 27.1206 -81.7267 310° West 92 106 6,100  Level Miami Center
10:31PM 27.1364 -81.7483 309° West 87 100 6,100  Level Miami Center
10:32PM 27.1547 -81.7656 320° Northwest 87 100 6,100  Level Miami Center
10:33PM 27.1747 -81.7850 319° Northwest 92 106 6,100  Level Miami Center
10:34PM 27.1908 -81.8044 313° West 92 106 6,100 -60 Level Miami Center
10:35PM 27.2153 -81.8217 328° Northwest 92 106 6,000 -60 Descending Miami Center
10:36PM 27.2356 -81.8414 319° Northwest 97 112 6,000  Level Miami Center
10:37PM 27.2472 -81.8650 299° West 91 105 6,000  Level Miami Center
10:38PM 27.2528 -81.8886 285° West 84 97 6,000  Level Miami Center
10:39PM 27.2664 -81.9103 305° West 84 97 6,100  Climbing Miami Center
10:40PM 27.2803 -81.9342 303° West 84 97 6,000 -120 Descending Miami Center
10:41PM 27.2942 -81.9558 306° West 84 97 5,900 -60 Descending Miami Center
10:42PM 27.3144 -81.9756 319° Northwest 84 97 5,900  Level Miami Center
10:43PM 27.3325 -81.9903 324° Northwest 84 97 6,000 120 Climbing Miami Center
10:44PM 27.3550 -82.0078 325° Northwest 89 102 6,200 60 Climbing Miami Center
10:45PM 27.3753 -82.0250 323° Northwest 89 102 6,200 -60 Level Miami Center
10:46PM 27.3933 -82.0444 316° Northwest 89 102 6,100 -60 Descending Miami Center
10:47PM 27.4133 -82.0642 319° Northwest 89 102 6,100  Level Miami Center
10:48PM 27.4336 -82.0836 320° Northwest 94 108 6,200 -60 Climbing Miami Center
10:49PM 27.4517 -82.1056 313° West 94 108 6,000 -120 Descending Miami Center
10:50PM 27.4694 -82.1275 312° West 94 108 6,000 -120 Level Miami Center
10:51PM 27.4875 -82.1494 313° West 94 108 5,800 -120 Descending Miami Center
10:52PM 27.5078 -82.1689 320° Northwest 94 108 5,800 -60 Level Miami Center
10:53PM 27.5236 -82.1908 309° West 94 108 5,700 -240 Descending Miami Center
10:54PM 27.5436 -82.2106 319° Northwest 94 108 5,400 -360 Descending Miami Center
10:55PM 27.5533 -82.2342 295° West 89 102 5,000 -480 Descending Miami Center
10:57PM 27.5833 -82.2833 305° West 97 112 4,100 -360 Descending Tampa TRACON
10:58PM 27.6000 -82.3167 299° West 82 94 4,000 -60 Descending Tampa TRACON
10:59PM 27.6167 -82.3333 318° Northwest 82 94 4,000  Level Tampa TRACON
11:00PM 27.6167 -82.3500 270° West 80 92 4,000  Level Tampa TRACON
11:01PM 27.6333 -82.3667 318° Northwest 81 93 4,000  Level Tampa TRACON
11:02PM 27.6500 -82.3833 318° Northwest 83 96 4,000  Level Tampa TRACON
11:03PM 27.6500 -82.4167 270° West 81 93 4,000  Level Tampa TRACON
11:04PM 27.6667 -82.4333 318° Northwest 81 93 4,000  Level Tampa TRACON
11:05PM 27.6833 -82.4500 318° Northwest 84 97 4,000 -60 Level Tampa TRACON
11:06PM 27.7000 -82.4667 318° Northwest 91 105 3,900  Descending Tampa TRACON
11:07PM 27.7167 -82.5000 299° West 91 105 4,000  Climbing Tampa TRACON
11:08PM 27.7167 -82.5167 270° West 83 96 4,000 -120 Level Tampa TRACON
11:09PM 27.7333 -82.5333 318° Northwest 81 93 3,800 -480 Descending Tampa TRACON
11:10PM 27.7500 -82.5500 318° Northwest 78 90 3,100 -600 Descending Tampa TRACON
11:11PM 27.7500 -82.5833 270° West 86 99 2,700 -300 Descending Tampa TRACON
11:12PM 27.7667 -82.6000 318° Northwest 84 97 2,600  Descending Tampa TRACON
11:13PM 27.7667 -82.6333 270° West 81 93 2,700 60 Climbing Tampa TRACON
11:14PM 27.7833 -82.6500 319° Northwest 83 96 2,800 -240 Climbing Tampa TRACON
11:15PM 27.8000 -82.6667 319° Northwest 100 115 2,300 -360 Descending Tampa TRACON
11:16PM 27.8167 -82.6833 319° Northwest 102 117 2,100 -300 Descending Tampa TRACON
11:17PM 27.8500 -82.7000 336° Northwest 108 124 1,800 -300 Descending Tampa TRACON